createdAt,value
2023-02-09T00:03:23.965Z,79.04
2023-02-09T00:06:51.899Z,78.40
2023-02-09T00:10:19.799Z,79.80
2023-02-09T00:13:47.729Z,79.50
2023-02-09T00:17:15.797Z,77.97
2023-02-09T00:20:44.157Z,77.86
2023-02-09T00:24:11.817Z,78.10
2023-02-09T00:27:00.629Z,77.54
2023-02-09T00:30:28.732Z,78.20
2023-02-09T00:33:56.578Z,79.77
2023-02-09T00:37:24.593Z,80.31
2023-02-09T00:40:13.673Z,79.18
2023-02-09T00:43:41.539Z,81.60
2023-02-09T00:47:09.398Z,83.21
2023-02-09T00:50:37.485Z,82.26
2023-02-09T00:54:05.533Z,83.30
2023-02-09T00:57:33.563Z,83.53
2023-02-09T01:00:41.514Z,84.07
2023-02-09T01:04:09.277Z,84.87
2023-02-09T01:07:37.034Z,85.52
2023-02-09T01:11:04.944Z,85.52
2023-02-09T01:14:13.176Z,83.83
2023-02-09T01:17:41.043Z,85.80
2023-02-09T01:21:09.391Z,86.59
2023-02-09T01:24:37.574Z,87.31
2023-02-09T01:27:46.406Z,87.06
2023-02-09T01:31:14.638Z,87.37
2023-02-09T01:34:42.626Z,87.12
2023-02-09T01:38:10.374Z,88.09
2023-02-09T01:40:39.836Z,87.97
2023-02-09T01:44:08.006Z,87.90
2023-02-09T01:47:35.733Z,88.80
2023-02-09T01:51:03.511Z,89.31
2023-02-09T01:54:11.716Z,91.93
2023-02-09T01:57:39.478Z,95.88
2023-02-09T02:01:07.500Z,93.13
2023-02-09T02:04:35.225Z,93.44
2023-02-09T02:08:03.182Z,93.54
2023-02-09T02:11:31.347Z,94.43
2023-02-09T02:14:59.507Z,94.41
2023-02-09T02:18:27.502Z,95.42
2023-02-09T02:21:55.479Z,95.68
2023-02-09T02:24:44.880Z,95.66
2023-02-09T02:28:13.213Z,96.21
2023-02-09T02:31:41.205Z,98.95
2023-02-09T02:35:09.362Z,98.32
2023-02-09T02:38:37.180Z,98.59
2023-02-09T02:42:05.009Z,98.21
2023-02-09T02:45:32.921Z,98.85
2023-02-09T02:49:00.791Z,99.26
2023-02-09T02:52:28.667Z,99.27
2023-02-09T02:55:56.646Z,97.37
2023-02-09T02:59:04.983Z,96.23
2023-02-09T03:02:33.089Z,93.69
2023-02-09T03:06:00.968Z,93.23
2023-02-09T03:09:28.742Z,93.97
2023-02-09T03:12:56.689Z,95.78
2023-02-09T03:16:24.647Z,94.83
2023-02-09T03:19:52.390Z,94.67
2023-02-09T03:23:20.203Z,94.81
2023-02-09T03:26:47.993Z,94.68
2023-02-09T03:30:15.845Z,94.17
2023-02-09T03:33:43.641Z,95.32
2023-02-09T03:37:11.396Z,95.36
2023-02-09T03:40:39.292Z,95.60
2023-02-09T03:44:07.205Z,95.24
2023-02-09T03:47:34.901Z,93.86
2023-02-09T03:51:02.784Z,95.77
2023-02-09T03:54:30.567Z,95.62
2023-02-09T03:57:58.422Z,95.43
2023-02-09T04:01:08.312Z,95.45
2023-02-09T04:03:56.624Z,95.68
2023-02-09T04:07:24.373Z,96.27
2023-02-09T04:10:51.917Z,96.25
2023-02-09T04:14:19.918Z,96.95
2023-02-09T04:17:50.730Z,95.32
2023-02-09T04:21:16.155Z,93.90
2023-02-09T04:24:25.520Z,92.99
2023-02-09T04:27:53.126Z,92.24
2023-02-09T04:31:02.194Z,93.43
2023-02-09T04:34:29.931Z,93.01
2023-02-09T04:37:57.698Z,93.07
2023-02-09T04:41:06.205Z,92.19
2023-02-09T04:44:34.065Z,92.22
2023-02-09T04:48:02.436Z,91.53
2023-02-09T04:51:11.089Z,92.00
2023-02-09T04:54:19.593Z,95.12
2023-02-09T04:57:29.223Z,92.77
2023-02-09T05:00:57.343Z,92.69
2023-02-09T05:04:25.189Z,92.57
2023-02-09T05:07:34.088Z,91.86
2023-02-09T05:11:02.294Z,91.31
2023-02-09T05:14:30.098Z,91.34
2023-02-09T05:17:57.859Z,92.68
2023-02-09T05:21:26.326Z,91.68
2023-02-09T05:25:03.651Z,91.03
2023-02-09T05:28:31.473Z,90.54
2023-02-09T05:31:43.521Z,92.98
2023-02-09T05:35:11.160Z,92.07
2023-02-09T05:38:39.182Z,92.31
2023-02-09T05:42:07.344Z,93.15
2023-02-09T05:45:35.746Z,91.74
2023-02-09T05:48:43.935Z,91.28
2023-02-09T05:52:12.026Z,91.18
2023-02-09T05:55:20.641Z,91.40
2023-02-09T05:58:28.587Z,91.70
2023-02-09T06:01:56.390Z,90.79
2023-02-09T06:05:24.200Z,91.11
2023-02-09T06:08:52.549Z,90.55
2023-02-09T06:12:20.123Z,89.76
2023-02-09T06:15:48.044Z,89.94
2023-02-09T06:19:15.798Z,89.55
2023-02-09T06:22:43.772Z,89.28
2023-02-09T06:26:11.493Z,88.85
2023-02-09T06:29:39.763Z,89.15
2023-02-09T06:32:48.938Z,87.84
2023-02-09T06:35:18.240Z,87.19
2023-02-09T06:38:46.008Z,87.47
2023-02-09T06:41:36.105Z,87.47
2023-02-09T06:45:04.160Z,87.03
2023-02-09T06:48:32.611Z,86.55
2023-02-09T06:52:00.300Z,86.15
2023-02-09T06:55:27.966Z,85.95
2023-02-09T06:58:55.870Z,85.88
2023-02-09T07:02:23.770Z,85.73
2023-02-09T07:05:51.740Z,85.57
2023-02-09T07:09:19.873Z,85.18
2023-02-09T07:12:47.691Z,85.49
2023-02-09T07:16:15.720Z,84.79
2023-02-09T07:19:24.291Z,84.70
2023-02-09T07:22:52.119Z,84.65
2023-02-09T07:26:20.266Z,84.30
2023-02-09T07:29:27.823Z,84.00
2023-02-09T07:32:55.549Z,83.65
2023-02-09T07:36:23.568Z,83.04
2023-02-09T07:39:51.542Z,83.04
2023-02-09T07:43:19.366Z,81.77
2023-02-09T07:46:47.263Z,81.68
2023-02-09T07:50:15.057Z,80.90
2023-02-09T07:53:42.831Z,80.20
2023-02-09T07:57:10.692Z,78.71
2023-02-09T08:00:38.603Z,78.36
2023-02-09T08:04:06.620Z,77.14
2023-02-09T08:07:34.456Z,77.31
2023-02-09T08:11:02.521Z,78.01
2023-02-09T08:14:30.295Z,75.40
2023-02-09T08:17:58.639Z,74.27
2023-02-09T08:21:26.647Z,73.68
2023-02-09T08:24:54.793Z,72.13
2023-02-09T08:28:34.880Z,70.88
2023-02-09T08:31:51.815Z,71.43
2023-02-09T08:35:19.515Z,69.72
2023-02-09T08:38:47.317Z,68.98
2023-02-09T08:42:15.359Z,70.63
2023-02-09T08:45:43.256Z,70.06
2023-02-09T08:49:10.875Z,70.05
2023-02-09T08:52:38.751Z,70.04
2023-02-09T08:55:48.236Z,70.29
2023-02-09T08:59:15.343Z,69.70
2023-02-09T09:02:04.786Z,68.67
2023-02-09T09:05:32.575Z,67.68
2023-02-09T09:08:41.000Z,67.57
2023-02-09T09:12:08.975Z,66.21
2023-02-09T09:15:36.653Z,66.22
2023-02-09T09:19:04.432Z,64.94
2023-02-09T09:22:32.204Z,64.31
2023-02-09T09:25:21.725Z,63.65
2023-02-09T09:28:49.564Z,63.60
2023-02-09T09:31:58.932Z,63.66
2023-02-09T09:35:26.727Z,64.43
2023-02-09T09:38:56.437Z,62.27
2023-02-09T09:42:22.296Z,61.93
2023-02-09T09:45:50.621Z,60.86
2023-02-09T09:49:18.276Z,60.44
2023-02-09T09:52:46.634Z,59.82
2023-02-09T09:56:14.607Z,58.35
2023-02-09T09:59:42.748Z,57.94
2023-02-09T10:02:52.610Z,56.97
2023-02-09T10:06:01.390Z,56.73
2023-02-09T10:09:29.547Z,56.67
2023-02-09T10:12:57.542Z,54.93
2023-02-09T10:16:25.532Z,54.66
2023-02-09T10:19:55.101Z,58.46
2023-02-09T10:23:22.602Z,58.57
2023-02-09T10:26:50.597Z,57.60
2023-02-09T10:30:19.009Z,58.06
2023-02-09T10:33:46.700Z,56.87
2023-02-09T10:37:14.542Z,54.63
2023-02-09T10:40:42.660Z,54.21
2023-02-09T10:44:10.464Z,52.49
2023-02-09T10:47:38.395Z,51.98
2023-02-09T10:51:06.492Z,51.49
2023-02-09T10:54:34.286Z,53.18
2023-02-09T10:58:02.300Z,51.99
2023-02-09T11:01:10.774Z,50.66
2023-02-09T11:04:38.984Z,50.94
2023-02-09T11:08:07.395Z,49.77
2023-02-09T11:11:35.306Z,50.65
2023-02-09T11:15:03.204Z,50.40
2023-02-09T11:18:31.234Z,49.75
2023-02-09T11:21:39.874Z,49.61
2023-02-09T11:25:07.712Z,49.22
2023-02-09T11:28:35.610Z,48.00
2023-02-09T11:32:03.816Z,47.66
2023-02-09T11:35:31.575Z,47.03
2023-02-09T11:38:59.425Z,47.16
2023-02-09T11:42:27.261Z,46.76
2023-02-09T11:45:54.972Z,46.63
2023-02-09T11:49:22.967Z,47.02
2023-02-09T11:52:51.323Z,47.76
2023-02-09T11:56:19.195Z,47.81
2023-02-09T11:59:47.145Z,47.70
2023-02-09T12:03:03.779Z,46.69
2023-02-09T12:06:32.190Z,47.23
2023-02-09T12:09:59.993Z,45.93
2023-02-09T12:13:27.944Z,45.23
2023-02-09T12:16:56.223Z,45.73
2023-02-09T12:20:19.725Z,45.36
2023-02-09T12:23:48.259Z,45.20
2023-02-09T12:27:16.058Z,45.14
2023-02-09T12:30:44.413Z,44.60
2023-02-09T12:34:11.725Z,45.35
2023-02-09T12:37:27.240Z,45.40
2023-02-09T12:40:49.258Z,44.60
2023-02-09T12:44:17.182Z,44.35
2023-02-09T12:47:44.860Z,45.13
2023-02-09T12:51:15.709Z,45.10
2023-02-09T12:54:43.561Z,44.88
2023-02-09T12:58:11.517Z,44.71
2023-02-09T13:01:39.334Z,44.13
2023-02-09T13:05:07.898Z,43.69
2023-02-09T13:08:35.810Z,44.17
2023-02-09T13:11:44.936Z,44.34
2023-02-09T13:15:12.886Z,44.50
2023-02-09T13:18:40.812Z,44.48
2023-02-09T13:22:08.624Z,44.30
2023-02-09T13:25:31.711Z,43.90
2023-02-09T13:29:06.029Z,43.45
2023-02-09T13:32:27.367Z,42.93
2023-02-09T13:35:55.137Z,42.45
2023-02-09T13:39:23.246Z,42.19
2023-02-09T13:42:31.133Z,41.69
2023-02-09T13:45:58.919Z,41.81
2023-02-09T13:49:26.806Z,40.72
2023-02-09T13:52:54.743Z,40.30
2023-02-09T13:56:22.812Z,39.70
2023-02-09T13:59:50.717Z,39.42
2023-02-09T14:03:02.595Z,39.03
2023-02-09T14:06:30.592Z,38.48
2023-02-09T14:09:39.835Z,38.24
2023-02-09T14:13:16.110Z,38.68
2023-02-09T14:16:53.165Z,39.47
2023-02-09T14:20:12.029Z,40.51
2023-02-09T14:23:39.943Z,41.90
2023-02-09T14:27:07.692Z,42.13
2023-02-09T14:30:36.043Z,42.38
2023-02-09T14:34:04.134Z,43.01
2023-02-09T14:37:32.314Z,44.30
2023-02-09T14:41:00.259Z,44.38
2023-02-09T14:44:28.154Z,45.22
2023-02-09T14:47:56.041Z,46.39
2023-02-09T14:51:23.799Z,47.90
2023-02-09T14:54:51.651Z,48.43
2023-02-09T14:58:19.501Z,48.60
2023-02-09T15:01:47.283Z,48.86
2023-02-09T15:05:15.401Z,48.19
2023-02-09T15:08:43.054Z,49.75
2023-02-09T15:12:11.260Z,48.13
2023-02-09T15:15:39.297Z,48.60
2023-02-09T15:18:48.421Z,49.20
2023-02-09T15:22:16.305Z,49.31
2023-02-09T15:25:44.734Z,49.71
2023-02-09T15:29:12.306Z,49.16
2023-02-09T15:32:40.260Z,49.53
2023-02-09T15:36:08.469Z,50.20
2023-02-09T15:39:36.349Z,50.31
2023-02-09T15:43:06.547Z,51.61
2023-02-09T15:46:34.838Z,52.22
2023-02-09T15:50:02.872Z,52.58
2023-02-09T15:53:30.796Z,53.43
2023-02-09T15:56:59.077Z,53.28
2023-02-09T16:00:26.975Z,54.15
2023-02-09T16:03:58.402Z,54.55
2023-02-09T16:07:23.929Z,54.96
2023-02-09T16:10:52.467Z,55.60
2023-02-09T16:14:20.201Z,56.01
2023-02-09T16:17:48.057Z,56.64
2023-02-09T16:21:15.851Z,57.02
2023-02-09T16:24:43.889Z,57.03
2023-02-09T16:28:11.726Z,57.43
2023-02-09T16:31:20.899Z,57.43
2023-02-09T16:34:48.988Z,57.92
2023-02-09T16:38:17.187Z,57.89
2023-02-09T16:41:45.199Z,58.41
2023-02-09T16:45:13.717Z,58.26
2023-02-09T16:48:21.821Z,58.58
2023-02-09T16:51:49.956Z,58.99
2023-02-09T16:55:17.780Z,59.25
2023-02-09T16:58:45.586Z,59.62
2023-02-09T17:02:14.343Z,58.57
2023-02-09T17:05:41.886Z,57.75
2023-02-09T17:09:09.741Z,59.24
2023-02-09T17:12:37.696Z,60.06
2023-02-09T17:16:05.598Z,60.70
2023-02-09T17:19:47.093Z,61.24
2023-02-09T17:22:41.760Z,61.42
2023-02-09T17:25:50.517Z,62.99
2023-02-09T17:29:09.140Z,63.21
2023-02-09T17:32:37.046Z,64.88
2023-02-09T17:39:32.777Z,66.12
2023-02-09T17:43:00.646Z,65.43
2023-02-09T17:46:09.692Z,65.87
2023-02-09T17:49:37.452Z,66.22
2023-02-09T17:53:05.676Z,66.00
2023-02-09T17:56:33.533Z,66.23
2023-02-09T18:00:01.558Z,66.50
2023-02-09T18:03:29.393Z,68.03
2023-02-09T18:06:57.942Z,70.38
2023-02-09T18:10:25.308Z,70.28
2023-02-09T18:13:53.160Z,69.55
2023-02-09T18:17:20.996Z,70.00
2023-02-09T18:20:29.056Z,70.76
2023-02-09T18:23:37.861Z,70.30
2023-02-09T18:27:05.822Z,70.84
2023-02-09T18:30:18.077Z,72.44
2023-02-09T18:33:45.912Z,75.24
2023-02-09T18:37:13.836Z,75.41
2023-02-09T18:40:42.053Z,74.85
2023-02-09T18:44:10.286Z,74.59
2023-02-09T18:47:40.189Z,74.82
2023-02-09T18:51:08.190Z,75.69
2023-02-09T18:54:41.453Z,76.41
2023-02-09T18:58:09.624Z,75.70
2023-02-09T19:01:37.563Z,76.02
2023-02-09T19:05:05.430Z,76.18
2023-02-09T19:08:32.971Z,76.13
2023-02-09T19:12:00.839Z,76.17
2023-02-09T19:15:28.825Z,75.29
2023-02-09T19:18:56.705Z,76.01
2023-02-09T19:22:24.667Z,76.42
2023-02-09T19:25:33.089Z,76.65
2023-02-09T19:29:01.229Z,76.99
2023-02-09T19:32:29.554Z,77.60
2023-02-09T19:35:57.465Z,79.36
2023-02-09T19:39:25.324Z,78.91
2023-02-09T19:42:53.525Z,79.19
2023-02-09T19:46:21.573Z,80.79
2023-02-09T19:49:49.229Z,80.39
2023-02-09T19:53:17.773Z,80.56
2023-02-09T19:56:27.056Z,81.35
2023-02-09T19:59:54.864Z,80.71
2023-02-09T20:03:23.206Z,80.31
2023-02-09T20:06:50.973Z,79.90
2023-02-09T20:10:00.972Z,80.39
2023-02-09T20:13:26.959Z,80.66
2023-02-09T20:16:15.868Z,80.51
2023-02-09T20:19:43.579Z,78.66
2023-02-09T20:22:51.296Z,78.17
2023-02-09T20:26:19.468Z,78.11
2023-02-09T20:29:47.493Z,78.91
2023-02-09T20:32:56.609Z,77.53
2023-02-09T20:36:03.907Z,76.02
2023-02-09T20:39:31.854Z,76.86
2023-02-09T20:42:39.187Z,76.98
2023-02-09T20:45:47.659Z,77.21
2023-02-09T20:48:56.561Z,77.64
2023-02-09T20:52:24.903Z,76.18
2023-02-09T20:55:52.689Z,75.38
2023-02-09T20:58:48.579Z,75.12
2023-02-09T21:02:16.302Z,75.44
2023-02-09T21:05:43.998Z,76.13
2023-02-09T21:08:31.709Z,76.07
2023-02-09T21:11:36.931Z,75.70
2023-02-09T21:14:41.173Z,75.24
2023-02-09T21:17:39.152Z,74.69
2023-02-09T21:20:47.399Z,74.60
2023-02-09T21:23:41.245Z,75.40
2023-02-09T21:26:29.046Z,74.74
2023-02-09T21:29:27.190Z,73.52
2023-02-09T21:31:59.661Z,72.86
2023-02-09T21:35:27.800Z,74.00
2023-02-09T21:38:55.969Z,73.75
2023-02-09T21:42:23.908Z,73.21
2023-02-09T21:45:52.149Z,73.47
2023-02-09T21:49:20.205Z,72.41
2023-02-09T21:52:49.059Z,71.02
2023-02-09T21:56:17.210Z,69.94
2023-02-09T21:59:44.876Z,70.43
2023-02-09T22:02:52.911Z,70.29
2023-02-09T22:06:21.292Z,69.68
2023-02-09T22:09:49.192Z,68.91
2023-02-09T22:13:17.180Z,69.05
2023-02-09T22:16:45.002Z,69.20
2023-02-09T22:20:13.309Z,68.68
2023-02-09T22:23:41.511Z,68.14
2023-02-09T22:27:11.984Z,68.07
2023-02-09T22:30:04.774Z,68.72
2023-02-09T22:33:35.158Z,68.47
2023-02-09T22:37:03.229Z,68.18
2023-02-09T22:40:12.321Z,67.54
2023-02-09T22:43:41.002Z,68.28
2023-02-09T22:46:49.463Z,68.48
2023-02-09T22:50:17.713Z,68.69
2023-02-09T22:53:48.394Z,68.98
2023-02-09T22:57:16.260Z,68.79
2023-02-09T23:00:45.896Z,69.92
2023-02-09T23:04:13.791Z,69.13
2023-02-09T23:06:57.533Z,69.93
2023-02-09T23:10:25.365Z,68.98
2023-02-09T23:14:08.543Z,69.00
2023-02-09T23:17:22.568Z,69.02
2023-02-09T23:20:52.070Z,69.46
2023-02-09T23:24:21.058Z,69.28
2023-02-09T23:27:50.372Z,68.75
2023-02-09T23:31:18.590Z,69.78
2023-02-09T23:34:47.097Z,69.85
2023-02-09T23:37:55.973Z,70.40
2023-02-09T23:41:23.789Z,69.24
2023-02-09T23:44:52.666Z,69.42
2023-02-09T23:48:20.898Z,69.88
2023-02-09T23:51:48.612Z,70.21
2023-02-09T23:55:16.432Z,70.29
2023-02-09T23:58:44.611Z,70.14
